Wallops Island, Virginia
Current Conditions -  °F | °C
As of 4:33 AM on Monday 24 Nov 2014 (Local Time) from KWAL Reporting Station
Moderate Rain Moderate Rain  
Wind Chill: 61°   Ceiling: 300
Heat Index: 61°   Visibility: 3mi
Dew Point: 61°   Wind: 24mph
Humidity: 100%   Direction: 210°SSW
Pressure: 29.79"   Gusts: 36mph
Location:  37.94°N, 75.46°W
Report Text: KWAL 240933Z AUTO 21021G31KT 3SM RA BR BKN003 BKN012 OVC017 16/16 A2979 RMK AO2 PK WND 21031/0930 P0009 T01610161
Loading
Personal Weather Stations






























Interactive Weather Map New forecast layout! Learn more

10-Day Weather Forecast

Advertisements
Track Severe Weather on mobile